Froelich, Iowa
Current Conditions -  °F | °C
As of 5:55 PM on Sunday 23 Nov 2014 (Local Time) from KPDC Reporting Station
Overcast Overcast  
Wind Chill: 47°   Ceiling: 700
Heat Index: 47°   Visibility: 10mi
Dew Point: 46°   Wind: 0mph
Humidity: 95%   Direction: NA
Pressure: 29.32"   Gusts: NA
Location:  42.9505°N, 91.311°W
Report Text: KPDC 232355Z AUTO 00000KT 10SM OVC007 09/08 A2932 RMK AO2 P0001 60027 T00850077 10105 20083
Loading
Personal Weather Stations






























Interactive Weather Map New forecast layout! Learn more

10-Day Weather Forecast

Advertisements
Track Severe Weather on mobile